createdAt,value
2019-03-24T00:03:35.752Z,43.83
2019-03-24T00:08:36.881Z,45.53
2019-03-24T00:13:39.932Z,44.70
2019-03-24T00:18:41.128Z,44.70
2019-03-24T00:23:44.152Z,45.03
2019-03-24T00:28:45.264Z,44.80
2019-03-24T00:33:46.409Z,42.60
2019-03-24T00:38:47.562Z,42.33
2019-03-24T00:43:48.702Z,42.57
2019-03-24T00:48:49.793Z,48.30
2019-03-24T00:53:50.933Z,44.80
2019-03-24T00:58:52.077Z,46.07
2019-03-24T01:03:53.165Z,44.70
2019-03-24T01:08:54.524Z,43.77
2019-03-24T01:13:55.624Z,49.67
2019-03-24T01:18:56.719Z,51.97
2019-03-24T01:23:57.820Z,46.70
2019-03-24T01:28:58.920Z,48.70
2019-03-24T01:34:00.019Z,46.13
2019-03-24T01:39:01.111Z,44.07
2019-03-24T01:44:02.349Z,48.33
2019-03-24T01:49:03.551Z,49.43
2019-03-24T01:54:04.840Z,49.53
2019-03-24T01:59:06.472Z,52.60
2019-03-24T02:04:07.585Z,48.30
2019-03-24T02:09:08.911Z,47.47
2019-03-24T02:14:10.083Z,52.90
2019-03-24T02:19:11.184Z,51.00
2019-03-24T02:24:12.293Z,53.67
2019-03-24T02:29:13.390Z,52.60
2019-03-24T02:34:14.480Z,52.43
2019-03-24T02:39:15.673Z,50.03
2019-03-24T02:44:16.789Z,49.60
2019-03-24T02:49:17.882Z,48.87
2019-03-24T02:54:19.080Z,53.17
2019-03-24T02:59:20.181Z,56.43
2019-03-24T03:04:21.275Z,62.93
2019-03-24T03:09:22.374Z,52.57
2019-03-24T03:14:23.479Z,48.13
2019-03-24T03:19:24.571Z,55.47
2019-03-24T03:24:25.672Z,56.30
2019-03-24T03:29:26.762Z,54.17
2019-03-24T03:34:28.061Z,64.30
2019-03-24T03:39:29.153Z,57.53
2019-03-24T03:44:30.280Z,58.83
2019-03-24T03:49:32.868Z,55.73
2019-03-24T03:54:35.634Z,68.57
2019-03-24T03:59:36.734Z,62.23
2019-03-24T04:04:37.833Z,65.27
2019-03-24T04:09:40.181Z,61.60
2019-03-24T04:14:41.270Z,78.90
2019-03-24T04:19:42.373Z,61.53
2019-03-24T04:24:43.468Z,66.90
2019-03-24T04:29:44.665Z,60.80
2019-03-24T04:34:45.758Z,63.57
2019-03-24T04:39:46.862Z,60.07
2019-03-24T04:44:47.981Z,60.70
2019-03-24T04:49:49.072Z,64.27
2019-03-24T04:54:50.190Z,70.33
2019-03-24T04:59:51.316Z,63.83
2019-03-24T05:04:54.339Z,68.60
2019-03-24T05:09:55.549Z,64.70
2019-03-24T05:14:56.648Z,66.93
2019-03-24T05:19:57.755Z,65.90
2019-03-24T05:24:58.887Z,73.87
2019-03-24T05:29:59.983Z,73.60
2019-03-24T05:35:01.102Z,79.70
2019-03-24T05:40:03.730Z,67.47
2019-03-24T05:45:05.551Z,70.27
2019-03-24T05:50:06.954Z,75.37
2019-03-24T05:55:08.630Z,68.43
2019-03-24T06:00:10.454Z,69.33
2019-03-24T06:05:11.561Z,65.87
2019-03-24T06:10:12.655Z,68.53
2019-03-24T06:15:13.849Z,65.20
2019-03-24T06:20:15.936Z,60.83
2019-03-24T06:25:18.390Z,67.53
2019-03-24T06:30:19.479Z,72.63
2019-03-24T06:35:20.580Z,66.60
2019-03-24T06:40:21.686Z,69.60
2019-03-24T06:45:28.493Z,61.53
2019-03-24T06:50:25.800Z,60.13
2019-03-24T06:55:27.062Z,68.20
2019-03-24T07:00:28.178Z,63.33
2019-03-24T07:05:29.284Z,64.33
2019-03-24T07:10:32.206Z,57.03
2019-03-24T07:15:33.394Z,58.67
2019-03-24T07:20:34.728Z,58.17
2019-03-24T07:25:36.129Z,61.63
2019-03-24T07:30:37.255Z,65.07
2019-03-24T07:35:41.424Z,63.43
2019-03-24T07:40:42.664Z,60.97
2019-03-24T07:45:43.880Z,71.07
2019-03-24T07:50:45.003Z,60.50
2019-03-24T07:55:46.165Z,64.20
2019-03-24T08:00:47.329Z,68.37
2019-03-24T08:05:48.511Z,66.83
2019-03-24T08:10:49.603Z,67.63
2019-03-24T08:15:50.704Z,65.60
2019-03-24T08:20:51.824Z,62.33
2019-03-24T08:25:52.932Z,63.83
2019-03-24T08:30:54.080Z,57.70
2019-03-24T08:35:55.309Z,54.63
2019-03-24T08:40:56.519Z,51.50
2019-03-24T08:45:58.664Z,51.13
2019-03-24T08:50:59.789Z,57.13
2019-03-24T08:56:00.884Z,57.67
2019-03-24T09:01:02.015Z,53.83
2019-03-24T09:06:03.216Z,60.70
2019-03-24T09:11:04.480Z,53.37
2019-03-24T09:16:05.576Z,58.23
2019-03-24T09:21:07.587Z,53.37
2019-03-24T09:26:10.251Z,62.17
2019-03-24T09:31:11.370Z,57.10
2019-03-24T09:36:12.479Z,57.83
2019-03-24T09:41:16.413Z,58.73
2019-03-24T09:46:17.511Z,58.83
2019-03-24T09:51:21.050Z,57.23
2019-03-24T09:56:21.648Z,54.00
2019-03-24T10:01:22.910Z,55.73
2019-03-24T10:06:24.019Z,55.33
2019-03-24T10:11:29.781Z,56.33
2019-03-24T10:16:31.100Z,57.17
2019-03-24T10:21:32.287Z,53.43
2019-03-24T10:26:33.456Z,50.60
2019-03-24T10:31:34.549Z,51.40
2019-03-24T10:36:35.650Z,47.73
2019-03-24T10:41:36.854Z,51.77
2019-03-24T10:46:40.363Z,54.67
2019-03-24T10:51:41.637Z,51.47
2019-03-24T10:56:45.454Z,56.73
2019-03-24T11:01:46.672Z,51.20
2019-03-24T11:06:47.790Z,55.17
2019-03-24T11:11:48.914Z,50.83
2019-03-24T11:16:50.147Z,55.20
2019-03-24T11:21:53.610Z,58.93
2019-03-24T11:26:54.879Z,58.57
2019-03-24T11:31:57.970Z,58.23
2019-03-24T11:36:59.182Z,58.33
2019-03-24T11:42:03.232Z,64.37
2019-03-24T11:47:04.370Z,60.93
2019-03-24T11:52:05.576Z,65.73
2019-03-24T11:57:06.667Z,62.23
2019-03-24T12:02:07.794Z,61.63
2019-03-24T12:07:08.902Z,61.20
2019-03-24T12:12:10.110Z,63.37
2019-03-24T12:17:11.239Z,63.37
2019-03-24T12:22:12.374Z,59.17
2019-03-24T12:27:13.596Z,64.17
2019-03-24T12:32:15.662Z,75.23
2019-03-24T12:37:16.920Z,67.83
2019-03-24T12:42:18.016Z,69.07
2019-03-24T12:47:19.265Z,61.50
2019-03-24T12:52:20.369Z,67.37
2019-03-24T12:57:21.588Z,65.70
2019-03-24T13:02:22.891Z,60.80
2019-03-24T13:07:26.332Z,63.77
2019-03-24T13:12:27.436Z,60.83
2019-03-24T13:17:28.667Z,61.47
2019-03-24T13:22:29.874Z,65.17
2019-03-24T13:27:32.402Z,60.60
2019-03-24T13:37:44.376Z,61.87
2019-03-24T13:42:47.377Z,62.60
2019-03-24T13:47:49.652Z,64.37
2019-03-24T13:52:50.955Z,59.87
2019-03-24T13:57:52.070Z,64.57
2019-03-24T14:02:53.188Z,60.47
2019-03-24T14:07:54.304Z,50.87
2019-03-24T14:12:55.514Z,56.23
2019-03-24T14:17:56.656Z,54.07
2019-03-24T14:22:57.776Z,48.90
2019-03-24T14:27:58.890Z,51.23
2019-03-24T14:33:00.033Z,50.70
2019-03-24T14:38:01.151Z,50.70
2019-03-24T14:43:03.576Z,53.10
2019-03-24T14:48:04.823Z,54.63
2019-03-24T14:53:06.307Z,58.70
2019-03-24T14:58:07.569Z,60.53
2019-03-24T15:03:08.972Z,59.33
2019-03-24T15:08:10.275Z,54.87
2019-03-24T15:13:11.386Z,57.97
2019-03-24T15:18:12.629Z,55.13
2019-03-24T15:23:13.787Z,66.03
2019-03-24T15:28:14.989Z,55.23
2019-03-24T15:33:16.133Z,54.47
2019-03-24T15:38:17.251Z,62.37
2019-03-24T15:43:18.424Z,59.07
2019-03-24T15:48:19.661Z,56.77
2019-03-24T15:53:20.861Z,59.43
2019-03-24T15:58:23.457Z,58.00
2019-03-24T16:03:24.561Z,59.90
2019-03-24T16:08:26.008Z,54.93
2019-03-24T16:13:27.237Z,58.93
2019-03-24T16:18:28.334Z,65.30
2019-03-24T16:23:31.674Z,60.90
2019-03-24T16:28:32.873Z,58.67
2019-03-24T16:33:34.187Z,57.27
2019-03-24T16:38:36.080Z,60.20
2019-03-24T16:43:37.289Z,66.67
2019-03-24T16:48:38.434Z,57.67
2019-03-24T16:53:39.654Z,60.87
2019-03-24T16:58:40.776Z,63.90
2019-03-24T17:03:41.908Z,67.53
2019-03-24T17:08:43.194Z,61.97
2019-03-24T17:13:44.300Z,61.67
2019-03-24T17:19:05.400Z,60.97
2019-03-24T17:24:06.529Z,64.07
2019-03-24T17:29:07.671Z,61.30
2019-03-24T17:34:09.679Z,63.70
2019-03-24T17:39:10.832Z,58.00
2019-03-24T17:44:12.871Z,64.93
2019-03-24T17:49:14.150Z,60.90
2019-03-24T17:54:15.272Z,60.77
2019-03-24T17:59:16.389Z,66.60
2019-03-24T18:04:24.857Z,61.97
2019-03-24T18:09:20.688Z,69.83
2019-03-24T18:14:21.917Z,74.40
2019-03-24T18:19:23.056Z,69.03
2019-03-24T18:24:24.359Z,66.50
2019-03-24T18:29:25.998Z,64.13
2019-03-24T18:34:27.574Z,66.40
2019-03-24T18:39:29.976Z,69.63
2019-03-24T18:44:31.620Z,70.97
2019-03-24T18:49:33.007Z,69.93
2019-03-24T18:54:34.296Z,72.47
2019-03-24T18:59:35.474Z,71.30
2019-03-24T19:04:36.811Z,89.13
2019-03-24T19:09:38.069Z,79.60
2019-03-24T19:14:40.174Z,71.50
2019-03-24T19:19:41.668Z,71.43
2019-03-24T19:24:42.954Z,83.00
2019-03-24T19:29:44.321Z,84.23
2019-03-24T19:34:45.710Z,71.37
2019-03-24T19:39:47.315Z,70.57
2019-03-24T19:44:48.623Z,65.43
2019-03-24T19:49:51.505Z,71.43
2019-03-24T19:54:52.829Z,70.07
2019-03-24T19:59:54.270Z,62.53
2019-03-24T20:04:55.748Z,73.70
2019-03-24T20:09:59.258Z,62.37
2019-03-24T20:15:00.524Z,67.73
2019-03-24T20:20:01.935Z,68.07
2019-03-24T20:25:05.613Z,70.03
2019-03-24T20:30:11.333Z,70.57
2019-03-24T20:35:12.621Z,78.63
2019-03-24T20:40:14.761Z,88.33
2019-03-24T20:45:16.279Z,87.90
2019-03-24T20:50:17.555Z,76.87
2019-03-24T20:55:18.750Z,83.13
2019-03-24T21:00:23.736Z,78.12
2019-03-24T21:05:24.954Z,72.00
2019-03-24T21:10:26.283Z,77.13
2019-03-24T21:15:27.404Z,79.87
2019-03-24T21:20:28.641Z,76.20
2019-03-24T21:25:29.776Z,73.77
2019-03-24T21:30:36.397Z,81.03
2019-03-24T21:35:38.477Z,77.10
2019-03-24T21:40:39.714Z,72.27
2019-03-24T21:45:41.204Z,85.93
2019-03-24T21:50:42.360Z,76.67
2019-03-24T21:55:43.475Z,69.37
2019-03-24T22:00:44.597Z,70.53
2019-03-24T22:05:46.272Z,67.97
2019-03-24T22:10:47.396Z,71.93
2019-03-24T22:15:48.577Z,71.63
2019-03-24T22:20:49.688Z,66.83
2019-03-24T22:25:50.813Z,74.60
2019-03-24T22:30:51.960Z,73.47
2019-03-24T22:35:53.145Z,68.33
2019-03-24T22:40:54.261Z,67.70
2019-03-24T22:45:55.376Z,64.47
2019-03-24T22:50:56.540Z,64.83
2019-03-24T22:55:57.631Z,59.77
2019-03-24T23:00:58.825Z,55.97
2019-03-24T23:05:59.946Z,51.23
2019-03-24T23:11:01.076Z,54.27
2019-03-24T23:16:02.293Z,52.37
2019-03-24T23:21:03.489Z,46.70
2019-03-24T23:26:04.619Z,50.60
2019-03-24T23:31:08.476Z,48.53
2019-03-24T23:36:09.577Z,44.40
2019-03-24T23:41:10.665Z,50.47
2019-03-24T23:46:11.783Z,55.43
2019-03-24T23:51:12.900Z,50.90
2019-03-24T23:56:14.232Z,49.23
